createdAt,value
2022-08-27T00:02:36.036Z,0.47
2022-08-27T00:07:38.267Z,0.57
2022-08-27T00:12:41.362Z,0.40
2022-08-27T00:17:45.506Z,0.55
2022-08-27T00:22:47.845Z,0.70
2022-08-27T00:27:50.456Z,0.35
2022-08-27T00:32:54.057Z,0.40
2022-08-27T00:37:56.463Z,0.77
2022-08-27T00:42:59.204Z,1.15
2022-08-27T00:48:01.594Z,0.70
2022-08-27T00:53:11.851Z,0.55
2022-08-27T00:58:27.264Z,0.93
2022-08-27T01:03:29.587Z,0.55
2022-08-27T01:08:36.462Z,0.80
2022-08-27T01:13:59.523Z,0.90
2022-08-27T01:19:09.383Z,0.90
2022-08-27T01:24:40.767Z,0.70
2022-08-27T01:29:44.398Z,1.00
2022-08-27T01:34:47.742Z,0.82
2022-08-27T01:39:50.200Z,0.90
2022-08-27T01:44:55.930Z,0.70
2022-08-27T01:49:59.307Z,0.98
2022-08-27T01:55:01.857Z,1.05
2022-08-27T02:00:10.653Z,1.13
2022-08-27T02:05:15.039Z,1.05
2022-08-27T02:10:23.271Z,0.80
2022-08-27T02:15:26.091Z,1.00
2022-08-27T02:20:29.442Z,0.88
2022-08-27T02:25:32.006Z,0.80
2022-08-27T02:30:35.449Z,0.93
2022-08-27T02:35:44.013Z,1.20
2022-08-27T02:40:46.513Z,1.07
2022-08-27T02:45:49.068Z,1.02
2022-08-27T02:50:52.127Z,0.60
2022-08-27T02:55:54.771Z,1.00
2022-08-27T03:00:57.374Z,0.40
2022-08-27T03:06:00.175Z,0.73
2022-08-27T03:11:02.655Z,1.15
2022-08-27T03:16:06.411Z,1.02
2022-08-27T03:21:09.082Z,1.27
2022-08-27T03:26:12.187Z,0.80
2022-08-27T03:31:20.668Z,0.70
2022-08-27T03:36:23.614Z,0.87
2022-08-27T03:41:43.859Z,0.75
2022-08-27T03:46:49.614Z,1.65
2022-08-27T03:51:53.229Z,1.17
2022-08-27T03:56:55.552Z,1.33
2022-08-27T04:01:58.213Z,1.00
2022-08-27T04:07:00.664Z,1.17
2022-08-27T04:12:03.307Z,1.92
2022-08-27T04:17:06.554Z,1.58
2022-08-27T04:22:08.983Z,1.20
2022-08-27T04:27:11.609Z,1.52
2022-08-27T04:32:14.342Z,2.00
2022-08-27T04:37:16.826Z,1.95
2022-08-27T04:42:25.991Z,1.92
2022-08-27T04:47:28.739Z,2.15
2022-08-27T04:52:31.002Z,1.65
2022-08-27T04:57:34.952Z,2.28
2022-08-27T05:02:37.242Z,1.65
2022-08-27T05:07:39.532Z,2.22
2022-08-27T05:12:41.831Z,1.75
2022-08-27T05:17:44.304Z,1.85
2022-08-27T05:22:46.895Z,2.67
2022-08-27T05:27:49.430Z,2.60
2022-08-27T05:32:51.846Z,2.22
2022-08-27T05:37:55.249Z,2.30
2022-08-27T05:42:57.656Z,2.33
2022-08-27T05:48:00.146Z,2.65
2022-08-27T05:53:02.529Z,3.35
2022-08-27T05:58:05.515Z,2.38
2022-08-27T06:03:10.198Z,2.17
2022-08-27T06:08:12.696Z,2.03
2022-08-27T06:13:15.426Z,2.50
2022-08-27T06:18:17.760Z,2.38
2022-08-27T06:23:20.038Z,2.17
2022-08-27T06:28:31.439Z,2.25
2022-08-27T06:33:34.444Z,2.88
2022-08-27T06:38:37.197Z,3.58
2022-08-27T06:43:41.019Z,2.80
2022-08-27T06:48:47.182Z,2.20
2022-08-27T06:53:49.546Z,2.72
2022-08-27T06:58:56.708Z,2.53
2022-08-27T07:04:01.596Z,1.83
2022-08-27T07:09:05.329Z,1.65
2022-08-27T07:14:08.381Z,1.70
2022-08-27T07:19:10.701Z,1.38
2022-08-27T07:24:13.710Z,1.70
2022-08-27T07:29:16.362Z,1.60
2022-08-27T07:34:18.751Z,1.27
2022-08-27T07:39:20.991Z,1.73
2022-08-27T07:44:28.233Z,0.98
2022-08-27T07:49:37.749Z,0.73
2022-08-27T07:54:41.163Z,0.68
2022-08-27T07:59:46.993Z,0.70
2022-08-27T08:04:49.251Z,0.88
2022-08-27T08:09:51.438Z,0.88
2022-08-27T08:14:57.934Z,0.95
2022-08-27T08:20:19.796Z,0.47
2022-08-27T08:25:23.417Z,0.38
2022-08-27T08:30:26.359Z,0.98
2022-08-27T08:35:35.120Z,0.35
2022-08-27T08:40:48.960Z,0.52
2022-08-27T08:45:51.809Z,0.50
2022-08-27T08:51:13.010Z,0.47
2022-08-27T08:56:24.399Z,0.80
2022-08-27T09:01:27.658Z,0.85
2022-08-27T09:06:47.310Z,0.47
2022-08-27T09:11:59.611Z,1.08
2022-08-27T09:17:02.390Z,1.60
2022-08-27T09:22:51.513Z,0.50
2022-08-27T09:27:56.474Z,0.82
2022-08-27T09:33:01.520Z,0.40
2022-08-27T09:38:04.644Z,0.70
2022-08-27T09:43:23.517Z,0.52
2022-08-27T09:48:30.693Z,0.60
2022-08-27T09:53:52.932Z,0.73
2022-08-27T09:59:32.210Z,0.43
2022-08-27T10:04:50.751Z,0.50
2022-08-27T10:10:21.678Z,0.38
2022-08-27T10:15:27.571Z,0.40
2022-08-27T10:21:05.793Z,0.75
2022-08-27T10:26:29.694Z,0.30
2022-08-27T10:31:48.010Z,0.38
2022-08-27T10:37:10.362Z,0.38
2022-08-27T10:42:21.800Z,0.20
2022-08-27T10:47:36.283Z,0.50
2022-08-27T10:52:46.764Z,0.35
2022-08-27T10:58:21.435Z,0.35
2022-08-27T11:03:36.090Z,0.32
2022-08-27T11:08:53.972Z,0.30
2022-08-27T11:14:01.088Z,0.28
2022-08-27T11:19:14.021Z,0.30
2022-08-27T11:24:41.049Z,0.20
2022-08-27T11:30:01.520Z,0.35
2022-08-27T11:35:31.989Z,0.30
2022-08-27T11:40:54.123Z,0.30
2022-08-27T11:46:08.570Z,0.20
2022-08-27T11:51:30.102Z,0.50
2022-08-27T11:56:39.859Z,0.50
2022-08-27T12:01:42.122Z,0.40
2022-08-27T12:06:50.424Z,0.30
2022-08-27T12:12:01.330Z,0.90
2022-08-27T12:17:06.342Z,0.32
2022-08-27T12:22:17.759Z,0.35
2022-08-27T12:27:25.790Z,0.15
2022-08-27T12:32:36.106Z,0.20
2022-08-27T12:37:45.558Z,0.45
2022-08-27T12:42:48.543Z,0.25
2022-08-27T12:47:52.862Z,0.20
2022-08-27T12:53:36.317Z,0.30
2022-08-27T12:58:52.900Z,0.63
2022-08-27T13:03:57.177Z,0.40
2022-08-27T13:09:02.510Z,0.22
2022-08-27T13:14:11.333Z,0.20
2022-08-27T13:19:34.544Z,0.40
2022-08-27T13:24:50.874Z,0.43
2022-08-27T13:29:53.396Z,0.50
2022-08-27T13:34:56.223Z,0.38
2022-08-27T13:39:58.832Z,0.17
2022-08-27T13:45:03.747Z,0.20
2022-08-27T13:50:24.157Z,0.20
2022-08-27T13:55:27.866Z,0.30
2022-08-27T14:00:33.363Z,0.20
2022-08-27T14:05:37.035Z,0.30
2022-08-27T14:10:41.979Z,0.28
2022-08-27T14:15:46.517Z,0.13
2022-08-27T14:20:48.764Z,0.40
2022-08-27T14:25:53.100Z,0.20
2022-08-27T14:30:55.338Z,0.47
2022-08-27T14:35:57.736Z,0.20
2022-08-27T14:41:00.375Z,0.25
2022-08-27T14:46:03.649Z,0.25
2022-08-27T14:51:13.672Z,0.30
2022-08-27T14:56:16.153Z,1.00
2022-08-27T15:01:20.281Z,0.22
2022-08-27T15:06:23.890Z,0.20
2022-08-27T15:11:36.406Z,0.30
2022-08-27T15:16:43.815Z,0.30
2022-08-27T15:21:48.677Z,0.60
2022-08-27T15:26:54.345Z,0.20
2022-08-27T15:31:57.197Z,0.32
2022-08-27T15:37:00.020Z,0.25
2022-08-27T15:42:12.317Z,0.38
2022-08-27T15:47:19.424Z,0.40
2022-08-27T15:52:23.389Z,0.63
2022-08-27T15:57:25.833Z,0.70
2022-08-27T16:02:28.257Z,1.27
2022-08-27T16:07:31.468Z,0.82
2022-08-27T16:12:33.643Z,0.47
2022-08-27T16:17:36.533Z,0.63
2022-08-27T16:22:39.726Z,0.63
2022-08-27T16:27:41.902Z,0.70
2022-08-27T16:32:49.331Z,0.75
2022-08-27T16:37:52.617Z,0.80
2022-08-27T16:42:56.169Z,1.10
2022-08-27T16:48:17.438Z,0.85
2022-08-27T16:53:22.180Z,0.70
2022-08-27T16:58:27.284Z,0.93
2022-08-27T17:03:44.115Z,1.42
2022-08-27T17:08:56.332Z,0.70
2022-08-27T17:14:02.392Z,0.90
2022-08-27T17:19:06.083Z,1.30
2022-08-27T17:24:12.575Z,1.02
2022-08-27T17:29:15.166Z,0.70
2022-08-27T17:34:21.617Z,1.10
2022-08-27T17:39:24.154Z,1.50
2022-08-27T17:44:36.005Z,1.15
2022-08-27T17:49:38.819Z,1.27
2022-08-27T17:54:40.953Z,0.90
2022-08-27T17:59:43.196Z,1.08
2022-08-27T18:04:45.434Z,1.17
2022-08-27T18:09:48.439Z,0.98
2022-08-27T18:15:08.472Z,0.93
2022-08-27T18:20:13.667Z,0.80
2022-08-27T18:25:18.491Z,0.82
2022-08-27T18:30:21.345Z,0.90
2022-08-27T18:35:28.041Z,1.10
2022-08-27T18:40:35.983Z,0.77
2022-08-27T18:45:39.561Z,0.80
2022-08-27T18:50:47.506Z,1.95
2022-08-27T18:55:50.777Z,0.70
2022-08-27T19:00:58.199Z,2.35
2022-08-27T19:06:00.771Z,1.20
2022-08-27T19:11:03.250Z,1.20
2022-08-27T19:16:09.915Z,1.02
2022-08-27T19:21:15.975Z,1.52
2022-08-27T19:26:21.232Z,1.00
2022-08-27T19:31:23.491Z,0.93
2022-08-27T19:36:27.543Z,0.52
2022-08-27T19:41:30.872Z,0.70
2022-08-27T19:46:35.402Z,0.85
2022-08-27T19:51:37.632Z,0.57
2022-08-27T19:56:39.928Z,0.88
2022-08-27T20:01:42.197Z,1.20
2022-08-27T20:06:44.496Z,0.70
2022-08-27T20:11:47.615Z,0.68
2022-08-27T20:16:49.820Z,0.98
2022-08-27T20:21:53.107Z,0.50
2022-08-27T20:26:56.970Z,0.45
2022-08-27T20:31:59.564Z,1.20
2022-08-27T20:37:03.068Z,0.50
2022-08-27T20:42:05.969Z,0.70
2022-08-27T20:47:09.743Z,1.15
2022-08-27T20:52:13.093Z,0.50
2022-08-27T20:57:15.476Z,0.60
2022-08-27T21:02:25.968Z,0.85
2022-08-27T21:07:28.441Z,0.50
2022-08-27T21:12:31.455Z,0.38
2022-08-27T21:17:33.740Z,0.70
2022-08-27T21:22:35.986Z,0.52
2022-08-27T21:27:38.988Z,0.98
2022-08-27T21:32:41.764Z,0.55
2022-08-27T21:37:43.994Z,0.70
2022-08-27T21:42:47.378Z,0.43
2022-08-27T21:47:51.911Z,0.85
2022-08-27T21:52:55.491Z,0.50
2022-08-27T21:57:57.984Z,0.63
2022-08-27T22:03:00.357Z,0.43
2022-08-27T22:08:02.915Z,0.68
2022-08-27T22:13:06.068Z,0.50
2022-08-27T22:18:09.454Z,0.80
2022-08-27T22:23:13.147Z,1.20
2022-08-27T22:28:15.762Z,0.73
2022-08-27T22:33:19.007Z,1.52
2022-08-27T22:38:21.271Z,1.20
2022-08-27T22:43:23.694Z,1.17
2022-08-27T22:48:25.822Z,1.23
2022-08-27T22:53:28.211Z,1.30
2022-08-27T22:58:30.371Z,1.10
2022-08-27T23:03:33.023Z,0.65
2022-08-27T23:08:35.480Z,0.65
2022-08-27T23:13:39.471Z,1.15
2022-08-27T23:18:42.916Z,0.82
2022-08-27T23:23:45.308Z,1.17
2022-08-27T23:28:47.697Z,1.35
2022-08-27T23:33:54.306Z,1.05
2022-08-27T23:38:58.353Z,1.00
2022-08-27T23:44:00.488Z,1.08
2022-08-27T23:49:02.800Z,1.13
2022-08-27T23:54:05.230Z,0.90
2022-08-27T23:59:07.441Z,0.95
